Time;durP1;ratioP1;P1;durP2;ratioP2;P2;SDS_P1;SDS_P2;PMS_P1;PMS_P2;Temp;Humidity;BMP_temperature;BMP_pressure;BME280_temperature;BME280_humidity;BME280_pressure;Samples;Min_cycle;Max_cycle;Signal;HPM_P1;HPM_P2
2024/03/23 00:00:39;;;;;;;4.23;3.67;;;10.60;99.90;;;;;;5024566;28;20651;-62
2024/03/23 00:03:08;;;;;;;8.50;3.70;;;10.60;99.90;;;;;;5021912;28;20230;-61
2024/03/23 00:05:39;;;;;;;4.93;3.63;;;10.50;99.90;;;;;;5021411;28;20739;-61
2024/03/23 00:08:09;;;;;;;5.67;3.97;;;10.50;99.90;;;;;;5025003;28;20214;-61
2024/03/23 00:10:39;;;;;;;5.10;3.70;;;10.50;99.90;;;;;;5024461;28;20678;-61
2024/03/23 00:13:08;;;;;;;4.23;3.47;;;10.50;99.90;;;;;;5021137;28;20685;-61
2024/03/23 00:15:38;;;;;;;4.43;3.50;;;10.40;99.90;;;;;;5021184;28;20295;-61
2024/03/23 00:18:08;;;;;;;5.00;3.50;;;10.40;99.90;;;;;;5024891;28;20222;-61
2024/03/23 00:20:38;;;;;;;7.20;3.70;;;10.40;99.90;;;;;;5023772;28;20234;-62
2024/03/23 00:23:08;;;;;;;4.40;3.47;;;10.30;99.90;;;;;;5021336;28;20222;-61
2024/03/23 00:25:38;;;;;;;4.60;3.77;;;10.30;99.90;;;;;;5021450;28;20286;-61
2024/03/23 00:28:10;;;;;;;5.30;4.00;;;10.30;99.90;;;;;;5013877;28;20290;-61
2024/03/23 00:30:40;;;;;;;4.63;3.57;;;10.20;99.90;;;;;;5021234;28;20206;-61
2024/03/23 00:33:09;;;;;;;4.47;3.77;;;10.20;99.90;;;;;;5024253;28;20738;-62
2024/03/23 00:35:39;;;;;;;5.30;3.57;;;10.20;99.90;;;;;;5023996;28;20229;-61
2024/03/23 00:38:09;;;;;;;6.87;4.37;;;10.10;99.90;;;;;;5020871;28;20258;-60
2024/03/23 00:40:39;;;;;;;6.70;3.77;;;10.10;99.90;;;;;;5021126;28;20211;-60
2024/03/23 00:43:08;;;;;;;5.93;4.07;;;10.10;99.90;;;;;;5024436;28;20218;-60
2024/03/23 00:45:38;;;;;;;5.37;4.20;;;10.10;99.90;;;;;;5024188;28;20213;-61
2024/03/23 00:48:08;;;;;;;6.20;3.70;;;10.10;99.90;;;;;;5013504;28;20203;-61
2024/03/23 00:50:38;;;;;;;4.97;3.83;;;10.00;99.90;;;;;;5020768;28;20245;-61
2024/03/23 00:53:07;;;;;;;5.23;3.83;;;9.90;99.90;;;;;;5013133;28;20219;-61
2024/03/23 00:55:35;;;;;;;5.70;3.50;;;10.00;99.90;;;;;;5020480;28;20290;-61
2024/03/23 00:58:01;;;;;;;4.53;3.57;;;9.90;99.90;;;;;;5020663;28;20606;-61
2024/03/23 01:00:28;;;;;;;6.93;3.57;;;9.90;99.90;;;;;;5012340;28;20199;-61
2024/03/23 01:02:53;;;;;;;4.20;3.20;;;9.90;99.90;;;;;;5012064;28;20369;-61
2024/03/23 01:05:20;;;;;;;6.43;3.87;;;9.80;99.90;;;;;;5012301;28;20639;-61
2024/03/23 01:07:46;;;;;;;4.53;3.53;;;9.90;99.90;;;;;;5012508;28;20245;-63
2024/03/23 01:10:12;;;;;;;4.70;3.70;;;9.90;99.90;;;;;;5020727;28;20227;-59
2024/03/23 01:12:40;;;;;;;6.23;3.40;;;10.00;99.90;;;;;;5020774;28;20716;-66
2024/03/23 01:15:06;;;;;;;4.00;3.13;;;10.00;99.90;;;;;;5023815;28;20202;-60
2024/03/23 01:17:32;;;;;;;5.50;3.53;;;10.10;99.90;;;;;;5023440;28;20308;-60
2024/03/23 01:19:59;;;;;;;3.60;3.17;;;10.20;99.90;;;;;;5021042;28;20664;-60
2024/03/23 01:22:25;;;;;;;4.83;3.50;;;10.30;99.90;;;;;;5020858;28;20227;-61
2024/03/23 01:24:51;;;;;;;5.57;3.57;;;10.50;99.90;;;;;;5022556;28;20645;-60
2024/03/23 01:27:17;;;;;;;4.50;3.60;;;10.70;99.90;;;;;;5023772;28;20210;-60
2024/03/23 01:29:45;;;;;;;8.43;3.77;;;10.90;99.90;;;;;;5022710;28;20206;-60
2024/03/23 01:32:11;;;;;;;7.20;4.30;;;11.10;99.90;;;;;;5019965;28;20234;-60
2024/03/23 01:34:37;;;;;;;4.50;3.30;;;11.20;99.90;;;;;;5020701;28;20276;-61
2024/03/23 01:37:03;;;;;;;4.10;3.20;;;11.30;99.90;;;;;;5023306;28;20214;-61
2024/03/23 01:39:30;;;;;;;4.63;3.00;;;11.40;99.90;;;;;;5023663;28;20201;-61
2024/03/23 01:41:55;;;;;;;4.97;2.27;;;11.50;99.90;;;;;;5020715;28;20222;-61
2024/03/23 01:44:22;;;;;;;7.47;2.80;;;11.60;99.90;;;;;;5020180;28;20621;-61
2024/03/23 01:46:49;;;;;;;4.60;2.30;;;11.80;99.90;;;;;;5021271;28;20285;-61
2024/03/23 01:49:17;;;;;;;2.77;2.03;;;12.00;99.90;;;;;;5023622;28;20202;-60
2024/03/23 01:51:43;;;;;;;4.00;2.13;;;12.10;99.90;;;;;;5022333;28;20652;-60
2024/03/23 01:54:10;;;;;;;4.43;2.10;;;12.30;99.90;;;;;;5020035;28;20206;-60
2024/03/23 01:56:36;;;;;;;4.37;2.40;;;12.50;99.90;;;;;;5019741;28;20206;-60
2024/03/23 01:59:03;;;;;;;4.17;2.17;;;12.60;99.90;;;;;;5011833;28;20210;-60
2024/03/23 02:01:29;;;;;;;3.03;1.93;;;12.80;99.90;;;;;;5019651;28;20634;-59
2024/03/23 02:03:58;;;;;;;4.53;2.30;;;12.90;99.90;;;;;;5022601;28;20209;-61
2024/03/23 02:06:24;;;;;;;3.93;2.07;;;13.10;99.90;;;;;;5023276;28;20243;-59
2024/03/23 02:08:51;;;;;;;4.93;2.30;;;13.20;99.90;;;;;;5021518;28;20230;-59
2024/03/23 02:11:17;;;;;;;2.63;2.10;;;13.30;99.90;;;;;;5019668;28;20649;-59
2024/03/23 02:13:44;;;;;;;3.40;2.10;;;13.30;99.90;;;;;;5020303;28;20199;-59
2024/03/23 02:16:09;;;;;;;3.43;2.60;;;13.40;99.90;;;;;;5023307;28;20429;-60
2024/03/23 02:18:37;;;;;;;3.90;3.00;;;13.40;99.90;;;;;;5023310;28;20226;-59
2024/03/23 02:21:04;;;;;;;2.63;2.00;;;13.40;99.90;;;;;;5022948;28;20205;-59
2024/03/23 02:23:32;;;;;;;2.40;1.80;;;13.40;99.90;;;;;;5023324;28;20210;-62
2024/03/23 02:25:58;;;;;;;3.40;2.10;;;13.40;99.90;;;;;;5019824;28;20219;-60
2024/03/23 02:28:24;;;;;;;3.43;2.07;;;13.50;99.90;;;;;;5019721;28;20662;-59
2024/03/23 02:30:51;;;;;;;3.47;2.10;;;13.60;99.90;;;;;;5021527;28;20211;-59
2024/03/23 02:33:17;;;;;;;3.10;2.10;;;13.70;99.90;;;;;;5022993;28;20226;-59
2024/03/23 02:35:44;;;;;;;3.73;2.07;;;13.70;99.90;;;;;;5022075;28;20234;-59
2024/03/23 02:38:10;;;;;;;5.83;2.27;;;13.70;99.90;;;;;;5019475;28;20238;-60
2024/03/23 02:40:38;;;;;;;2.43;2.00;;;13.70;99.90;;;;;;5011419;28;20261;-59
2024/03/23 02:43:04;;;;;;;3.03;2.27;;;13.60;99.90;;;;;;5022764;28;20222;-59
2024/03/23 02:45:31;;;;;;;2.90;1.83;;;13.60;99.90;;;;;;5026619;28;20633;-60
2024/03/23 02:47:57;;;;;;;2.43;1.90;;;13.60;99.90;;;;;;5024299;28;20260;-60
2024/03/23 02:50:24;;;;;;;3.43;1.83;;;13.50;99.90;;;;;;5023239;28;20617;-60
2024/03/23 02:52:49;;;;;;;3.70;2.10;;;13.50;99.90;;;;;;5024780;28;20229;-60
2024/03/23 02:55:16;;;;;;;4.53;1.90;;;13.50;99.90;;;;;;5026285;28;20198;-60
2024/03/23 02:57:43;;;;;;;4.90;1.80;;;13.40;99.90;;;;;;5025504;28;20647;-60
2024/03/23 03:00:12;;;;;;;3.63;1.93;;;13.40;99.90;;;;;;5023138;28;20207;-59
2024/03/23 03:02:38;;;;;;;2.90;2.00;;;13.40;99.90;;;;;;5022477;28;20239;-59
2024/03/23 03:05:05;;;;;;;5.43;1.90;;;13.40;99.90;;;;;;5022572;28;20297;-60
2024/03/23 03:07:31;;;;;;;2.93;1.90;;;13.30;99.90;;;;;;5022354;28;20235;-60
2024/03/23 03:09:58;;;;;;;2.40;1.60;;;13.30;99.90;;;;;;5024895;28;20227;-61
2024/03/23 03:12:25;;;;;;;3.27;1.83;;;13.40;99.90;;;;;;5025974;28;20296;-59
2024/03/23 03:14:52;;;;;;;2.67;1.73;;;13.40;99.90;;;;;;5024264;28;20203;-61
2024/03/23 03:17:19;;;;;;;3.00;1.80;;;13.40;99.90;;;;;;5022121;28;20229;-59
2024/03/23 03:19:45;;;;;;;3.23;1.73;;;13.40;99.90;;;;;;5023079;28;20208;-59
2024/03/23 03:22:12;;;;;;;2.83;1.70;;;13.40;99.90;;;;;;5025672;28;20393;-59
2024/03/23 03:24:37;;;;;;;5.80;2.00;;;13.30;99.90;;;;;;5025568;28;20202;-59
2024/03/23 03:27:04;;;;;;;4.67;2.20;;;13.30;99.90;;;;;;5021887;28;20203;-60
2024/03/23 03:29:35;;;;;;;4.13;2.03;;;13.30;99.90;;;;;;5022517;28;20243;-60
2024/03/23 03:32:03;;;;;;;3.13;1.70;;;13.20;99.90;;;;;;5025089;28;20240;-59
2024/03/23 03:34:29;;;;;;;3.27;1.83;;;13.20;99.90;;;;;;5025512;28;20331;-60
2024/03/23 03:36:56;;;;;;;3.20;2.00;;;13.10;99.90;;;;;;5023076;28;20202;-59
2024/03/23 03:39:22;;;;;;;2.97;1.80;;;13.10;99.90;;;;;;5019740;28;20218;-59
2024/03/23 03:41:49;;;;;;;2.10;1.70;;;13.00;99.90;;;;;;5024217;28;20553;-59
2024/03/23 03:44:14;;;;;;;5.17;3.23;;;12.90;99.90;;;;;;5022069;28;20668;-59
2024/03/23 03:46:41;;;;;;;5.30;3.60;;;12.80;99.90;;;;;;5013335;28;20253;-60
2024/03/23 03:49:08;;;;;;;4.90;2.97;;;12.70;99.90;;;;;;5013607;28;20249;-59
2024/03/23 03:51:35;;;;;;;3.10;2.80;;;12.60;99.90;;;;;;5013437;28;20720;-60
2024/03/23 03:54:01;;;;;;;5.13;2.87;;;12.50;99.90;;;;;;5013461;28;20627;-60
2024/03/23 03:56:27;;;;;;;5.50;2.70;;;12.40;99.90;;;;;;5021554;28;20207;-60
2024/03/23 03:58:54;;;;;;;3.67;2.47;;;12.30;99.90;;;;;;5023368;28;20716;-60
2024/03/23 04:01:20;;;;;;;2.83;2.47;;;12.20;99.90;;;;;;5025096;28;20218;-61
2024/03/23 04:03:46;;;;;;;4.97;2.50;;;12.20;99.90;;;;;;5024080;28;20207;-61
2024/03/23 04:06:20;;;;;;;2.77;2.43;;;12.10;99.90;;;;;;5021276;28;20210;-60
2024/03/23 04:08:45;;;;;;;3.30;2.33;;;12.00;99.90;;;;;;5022314;28;20207;-61
2024/03/23 04:11:12;;;;;;;2.97;2.60;;;11.90;99.90;;;;;;5024878;28;20201;-61
2024/03/23 04:13:38;;;;;;;2.80;2.33;;;11.90;99.90;;;;;;5024802;28;20210;-62
2024/03/23 04:16:05;;;;;;;3.30;2.30;;;11.70;99.90;;;;;;5021291;28;20257;-63
2024/03/23 04:18:31;;;;;;;4.13;2.33;;;11.70;99.90;;;;;;5021307;28;20232;-61
2024/03/23 04:20:58;;;;;;;3.63;2.73;;;11.50;99.90;;;;;;5023254;28;20293;-61
2024/03/23 04:23:25;;;;;;;4.07;2.93;;;11.50;99.90;;;;;;5024764;28;20260;-61
2024/03/23 04:25:53;;;;;;;3.37;2.30;;;11.50;99.90;;;;;;5023199;28;20213;-63
2024/03/23 04:28:18;;;;;;;4.77;2.43;;;11.60;99.90;;;;;;5021224;28;20210;-60
2024/03/23 04:30:45;;;;;;;3.13;2.57;;;11.80;99.90;;;;;;5021663;28;20203;-60
2024/03/23 04:33:11;;;;;;;4.50;2.33;;;12.00;99.90;;;;;;5024291;28;20280;-60
2024/03/23 04:35:37;;;;;;;3.13;2.30;;;12.10;99.90;;;;;;5024244;28;20206;-59
2024/03/23 04:38:04;;;;;;;3.27;2.20;;;12.20;99.90;;;;;;5021313;28;20218;-61
2024/03/23 04:40:32;;;;;;;5.47;3.30;;;12.20;99.90;;;;;;5021278;28;20207;-60
2024/03/23 04:43:00;;;;;;;10.60;3.17;;;12.00;99.90;;;;;;5023081;28;20230;-61
2024/03/23 04:45:27;;;;;;;7.30;3.57;;;11.70;99.90;;;;;;5023915;28;20293;-62
2024/03/23 04:47:54;;;;;;;10.17;5.27;;;11.70;99.90;;;;;;5022474;28;20268;-61
2024/03/23 04:50:21;;;;;;;12.57;5.63;;;11.70;99.90;;;;;;5020778;28;20291;-62
2024/03/23 04:52:47;;;;;;;6.27;4.77;;;11.80;99.90;;;;;;5012467;28;20231;-62
2024/03/23 04:55:14;;;;;;;9.20;5.50;;;12.00;99.90;;;;;;5012561;28;20237;-62
2024/03/23 04:57:41;;;;;;;7.87;6.17;;;12.10;99.90;;;;;;5012321;28;20314;-62
2024/03/23 05:00:17;;;;;;;7.53;6.50;;;12.10;99.90;;;;;;5024060;28;20205;-62
2024/03/23 05:02:44;;;;;;;7.20;6.23;;;12.30;99.90;;;;;;5023504;28;20715;-62
2024/03/23 05:05:10;;;;;;;8.97;6.93;;;12.40;99.90;;;;;;5020586;28;20203;-61
2024/03/23 05:07:36;;;;;;;7.93;6.60;;;12.40;99.90;;;;;;5019947;28;20211;-62
2024/03/23 05:10:03;;;;;;;9.10;7.00;;;12.50;99.90;;;;;;5023072;28;20213;-62
2024/03/23 05:12:29;;;;;;;9.53;6.57;;;12.60;99.90;;;;;;5023718;28;20301;-61
2024/03/23 05:14:57;;;;;;;8.70;6.90;;;12.50;99.90;;;;;;5021813;28;20306;-62
2024/03/23 05:17:23;;;;;;;9.30;6.47;;;12.60;99.90;;;;;;5020245;28;20207;-62
2024/03/23 05:19:49;;;;;;;8.23;6.70;;;12.60;99.90;;;;;;5021012;28;20218;-62
2024/03/23 05:22:15;;;;;;;10.30;7.60;;;12.60;99.90;;;;;;5023662;28;20222;-62
2024/03/23 05:24:42;;;;;;;10.67;7.93;;;12.60;99.90;;;;;;5023620;28;20264;-61
2024/03/23 05:27:07;;;;;;;10.07;7.90;;;12.60;99.90;;;;;;5011846;28;20669;-60
2024/03/23 05:29:34;;;;;;;11.53;8.10;;;12.60;99.90;;;;;;5011837;28;20203;-63
2024/03/23 05:32:01;;;;;;;11.47;8.33;;;12.50;99.90;;;;;;5012055;28;20587;-61
2024/03/23 05:34:28;;;;;;;12.13;8.40;;;12.50;99.90;;;;;;5012046;28;20634;-62
2024/03/23 05:36:54;;;;;;;10.40;8.60;;;12.50;99.90;;;;;;5011652;28;20207;-62
2024/03/23 05:39:22;;;;;;;10.73;8.70;;;12.50;99.90;;;;;;5011834;28;20223;-62
2024/03/23 05:41:48;;;;;;;11.00;9.30;;;12.60;99.90;;;;;;5011690;28;20708;-62
2024/03/23 05:44:14;;;;;;;13.97;8.87;;;12.60;99.90;;;;;;5011904;28;20727;-63
2024/03/23 05:46:40;;;;;;;11.17;7.70;;;12.50;99.90;;;;;;5011702;28;20684;-62
2024/03/23 05:49:09;;;;;;;9.47;7.53;;;12.30;99.90;;;;;;5023193;28;20195;-61
2024/03/23 05:51:34;;;;;;;12.27;8.13;;;12.20;99.90;;;;;;5023426;28;20230;-62
2024/03/23 05:54:01;;;;;;;8.50;7.10;;;12.20;99.90;;;;;;5021010;28;20691;-62
2024/03/23 05:56:27;;;;;;;7.73;6.70;;;12.20;99.90;;;;;;5019827;28;20631;-62
2024/03/23 05:58:54;;;;;;;8.20;6.67;;;12.20;99.90;;;;;;5020953;28;20222;-62
2024/03/23 06:01:19;;;;;;;10.40;7.90;;;12.20;99.90;;;;;;5023200;28;20300;-62
2024/03/23 06:03:47;;;;;;;7.50;6.10;;;12.10;99.90;;;;;;5022954;28;20213;-61
2024/03/23 06:06:14;;;;;;;7.43;5.57;;;12.10;99.90;;;;;;5019643;28;20199;-62
2024/03/23 06:08:41;;;;;;;6.30;5.50;;;12.00;99.90;;;;;;5011601;28;20213;-62
2024/03/23 06:11:06;;;;;;;6.20;5.20;;;12.00;99.90;;;;;;5011521;28;20204;-61
2024/03/23 06:13:33;;;;;;;7.17;5.43;;;11.90;99.90;;;;;;5019836;28;20261;-60
2024/03/23 06:15:59;;;;;;;6.20;4.70;;;11.90;99.90;;;;;;5021759;28;20202;-63
2024/03/23 06:18:26;;;;;;;7.10;4.70;;;11.90;99.90;;;;;;5023690;28;20280;-61
2024/03/23 06:20:52;;;;;;;5.17;4.13;;;11.90;99.90;;;;;;5025847;28;20234;-61
2024/03/23 06:23:20;;;;;;;10.17;4.30;;;12.00;99.90;;;;;;5023437;28;20656;-64
2024/03/23 06:25:46;;;;;;;6.00;4.07;;;12.10;99.90;;;;;;5023236;28;20290;-62
2024/03/23 06:28:13;;;;;;;4.77;4.10;;;12.10;99.90;;;;;;5026871;28;20647;-60
2024/03/23 06:30:39;;;;;;;5.73;4.23;;;12.10;99.90;;;;;;5026917;28;20230;-60
2024/03/23 06:33:06;;;;;;;5.50;4.10;;;12.10;99.90;;;;;;5024015;28;20226;-63
2024/03/23 06:35:32;;;;;;;5.00;3.70;;;12.10;99.90;;;;;;5023247;28;20290;-62
2024/03/23 06:37:58;;;;;;;5.40;4.40;;;12.10;99.90;;;;;;5024877;28;20644;-62
2024/03/23 06:40:25;;;;;;;5.60;4.33;;;12.10;99.90;;;;;;5026461;28;20293;-62
2024/03/23 06:42:53;;;;;;;4.20;3.80;;;12.30;99.90;;;;;;5025677;28;20229;-62
2024/03/23 06:45:22;;;;;;;5.00;3.27;;;12.30;99.90;;;;;;5023232;28;20206;-62
2024/03/23 06:47:49;;;;;;;4.43;3.33;;;12.40;99.90;;;;;;5014930;28;20207;-61
2024/03/23 06:50:15;;;;;;;3.93;2.93;;;12.30;99.90;;;;;;5014885;28;20249;-62
2024/03/23 06:52:42;;;;;;;5.83;3.03;;;12.30;99.90;;;;;;5014685;28;20309;-62
2024/03/23 06:55:08;;;;;;;3.63;2.50;;;12.30;99.90;;;;;;5014504;28;20264;-62
2024/03/23 06:57:36;;;;;;;2.87;2.20;;;12.10;99.90;;;;;;5014661;28;20210;-61
2024/03/23 07:00:02;;;;;;;3.43;2.43;;;12.00;99.90;;;;;;5014833;28;20242;-61
2024/03/23 07:02:29;;;;;;;2.57;2.00;;;12.10;99.90;;;;;;5014474;28;20305;-62
2024/03/23 07:04:54;;;;;;;3.03;2.00;;;12.20;99.90;;;;;;5014704;28;20217;-62
2024/03/23 07:07:22;;;;;;;2.83;1.50;;;12.20;99.90;;;;;;5022421;28;20207;-62
2024/03/23 07:09:48;;;;;;;1.27;1.00;;;12.10;99.90;;;;;;5022994;28;20206;-61
2024/03/23 07:12:15;;;;;;;1.90;1.30;;;12.10;99.90;;;;;;5026305;28;20226;-60
2024/03/23 07:14:42;;;;;;;2.20;1.33;;;12.00;99.90;;;;;;5026279;28;20214;-60
2024/03/23 07:17:08;;;;;;;2.33;1.20;;;12.00;99.90;;;;;;5022764;28;20203;-58
2024/03/23 07:19:34;;;;;;;1.20;0.93;;;12.20;99.90;;;;;;5022503;28;20223;-61
2024/03/23 07:22:01;;;;;;;1.10;0.97;;;12.40;99.90;;;;;;5024104;28;20227;-60
2024/03/23 07:24:27;;;;;;;1.27;1.07;;;12.40;99.90;;;;;;5025899;28;20206;-60
2024/03/23 07:26:54;;;;;;;0.50;0.50;;;12.30;99.90;;;;;;5024674;28;20211;-60
2024/03/23 07:29:19;;;;;;;0.63;0.63;;;12.20;99.90;;;;;;5021945;28;20199;-61
2024/03/23 07:31:47;;;;;;;1.53;0.90;;;12.10;99.90;;;;;;5022453;28;20219;-61
2024/03/23 07:34:13;;;;;;;0.80;0.50;;;12.10;99.90;;;;;;5014470;28;20305;-61
2024/03/23 07:36:40;;;;;;;0.93;0.70;;;12.30;99.90;;;;;;5013839;28;20207;-59
2024/03/23 07:39:06;;;;;;;0.70;0.63;;;12.40;99.90;;;;;;5014219;28;20229;-60
2024/03/23 07:41:32;;;;;;;1.63;0.70;;;12.50;99.90;;;;;;5013878;28;20223;-60
2024/03/23 07:43:58;;;;;;;1.00;0.80;;;12.60;99.90;;;;;;5013671;28;20257;-59
2024/03/23 07:46:25;;;;;;;3.53;0.70;;;12.60;99.90;;;;;;5013888;28;20211;-60
2024/03/23 07:48:52;;;;;;;5.73;1.50;;;12.50;99.90;;;;;;5013708;28;20210;-59
2024/03/23 07:51:21;;;;;;;3.13;1.07;;;12.60;99.90;;;;;;5022007;28;20577;-59
2024/03/23 07:53:48;;;;;;;0.77;0.77;;;12.50;99.90;;;;;;5021737;28;20677;-59
2024/03/23 07:56:15;;;;;;;0.60;0.60;;;12.40;99.90;;;;;;5021511;28;20203;-60
2024/03/23 07:58:42;;;;;;;1.53;0.80;;;12.40;99.90;;;;;;5021479;28;20752;-60
2024/03/23 08:01:09;;;;;;;0.60;0.60;;;12.50;99.90;;;;;;5024133;28;20229;-60
2024/03/23 08:03:36;;;;;;;0.70;0.70;;;12.60;99.90;;;;;;5025124;28;20217;-60
2024/03/23 08:06:11;;;;;;;0.60;0.60;;;12.50;99.90;;;;;;5022765;28;20292;-60
2024/03/23 08:08:36;;;;;;;0.70;0.50;;;12.50;99.90;;;;;;5021902;28;20206;-60
2024/03/23 08:11:03;;;;;;;0.70;0.70;;;12.40;99.90;;;;;;5023536;28;20206;-60
2024/03/23 08:13:30;;;;;;;3.93;0.67;;;12.50;99.90;;;;;;5024985;28;20712;-60
2024/03/23 08:15:57;;;;;;;1.70;1.30;;;12.30;99.90;;;;;;5023398;28;20209;-60
2024/03/23 08:18:23;;;;;;;1.07;0.70;;;11.90;99.90;;;;;;5020977;28;20289;-60
2024/03/23 08:20:57;;;;;;;0.70;0.60;;;11.60;99.90;;;;;;5021171;28;20591;-60
2024/03/23 08:23:25;;;;;;;1.13;0.60;;;11.30;99.90;;;;;;5024797;28;20289;-61
2024/03/23 08:25:51;;;;;;;0.77;0.70;;;11.10;99.90;;;;;;5024331;28;20202;-61
2024/03/23 08:28:17;;;;;;;0.77;0.53;;;10.80;99.90;;;;;;5021272;28;20253;-60
2024/03/23 08:30:43;;;;;;;0.47;0.40;;;10.60;99.90;;;;;;5021163;28;20289;-60
2024/03/23 08:33:10;;;;;;;1.10;0.57;;;10.50;99.90;;;;;;5012669;28;20595;-61
2024/03/23 08:35:35;;;;;;;0.50;0.50;;;10.40;99.90;;;;;;5012723;28;20207;-60
2024/03/23 08:38:02;;;;;;;1.23;0.30;;;10.30;99.90;;;;;;5012881;28;20253;-60
2024/03/23 08:40:29;;;;;;;0.40;0.40;;;10.30;99.90;;;;;;5012996;28;20763;-60
2024/03/23 08:42:56;;;;;;;1.23;0.70;;;10.30;99.90;;;;;;5021480;28;20231;-60
2024/03/23 08:45:21;;;;;;;0.40;0.30;;;10.40;99.90;;;;;;5024024;28;20206;-59
2024/03/23 08:47:48;;;;;;;1.23;0.50;;;10.70;99.90;;;;;;5024143;28;20224;-60
2024/03/23 08:50:14;;;;;;;0.47;0.40;;;11.10;99.90;;;;;;5024135;28;20252;-60
2024/03/23 08:52:41;;;;;;;1.00;0.63;;;11.80;99.90;;;;;;5024257;28;20626;-59
2024/03/23 08:55:07;;;;;;;0.50;0.40;;;12.20;99.90;;;;;;5021577;28;20206;-60
2024/03/23 08:57:35;;;;;;;0.73;0.43;;;12.40;99.90;;;;;;5020465;28;20205;-60
2024/03/23 09:00:01;;;;;;;1.50;0.60;;;12.50;99.90;;;;;;5022176;28;20269;-59
2024/03/23 09:02:27;;;;;;;2.27;0.67;;;12.50;99.90;;;;;;5023987;28;20230;-59
2024/03/23 09:04:53;;;;;;;1.07;0.77;;;12.70;99.90;;;;;;5023290;28;20210;-59
2024/03/23 09:07:20;;;;;;;0.83;0.70;;;12.80;99.90;;;;;;5020486;28;20195;-57
2024/03/23 09:09:46;;;;;;;2.20;0.73;;;12.80;99.90;;;;;;5020443;28;20202;-57
2024/03/23 09:12:12;;;;;;;2.00;0.60;;;12.80;99.90;;;;;;5012185;28;20227;-58
2024/03/23 09:14:39;;;;;;;1.23;0.63;;;13.00;99.90;;;;;;5012132;28;20202;-58
2024/03/23 09:17:06;;;;;;;1.10;0.90;;;13.00;99.90;;;;;;5012001;28;20265;-57
2024/03/23 09:19:32;;;;;;;1.17;0.70;;;12.90;99.90;;;;;;5012306;28;20246;-58
2024/03/23 09:21:59;;;;;;;2.03;0.97;;;12.80;99.90;;;;;;5021261;28;20697;-57
2024/03/23 09:24:24;;;;;;;2.70;1.13;;;12.70;99.90;;;;;;5024012;28;20242;-58
2024/03/23 09:26:53;;;;;;;2.67;1.03;;;12.70;99.90;;;;;;5023306;28;20721;-59
2024/03/23 09:29:19;;;;;;;3.90;1.73;;;12.80;99.90;;;;;;5020718;28;20195;-57
2024/03/23 09:31:47;;;;;;;1.60;1.00;;;12.70;99.90;;;;;;5020339;28;20234;-58
2024/03/23 09:34:13;;;;;;;2.07;1.33;;;12.70;99.90;;;;;;5023183;28;20268;-57
2024/03/23 09:36:39;;;;;;;2.97;1.30;;;12.80;99.90;;;;;;5023356;28;20680;-58
2024/03/23 09:39:06;;;;;;;1.73;1.50;;;13.10;99.90;;;;;;5021545;28;20230;-58
2024/03/23 09:41:33;;;;;;;4.70;2.00;;;13.20;99.90;;;;;;5020078;28;20224;-57
2024/03/23 09:43:59;;;;;;;3.47;1.43;;;13.20;99.90;;;;;;5021049;28;20219;-59
2024/03/23 09:46:25;;;;;;;3.67;1.70;;;13.40;99.90;;;;;;5023530;28;20241;-59
2024/03/23 09:48:53;;;;;;;3.43;1.67;;;13.70;99.90;;;;;;5023025;28;20199;-58
2024/03/23 09:51:20;;;;;;;5.83;2.23;;;14.00;99.90;;;;;;5020087;28;20227;-58
2024/03/23 09:53:45;;;;;;;4.60;1.70;;;14.00;99.90;;;;;;5022708;28;20269;-56
2024/03/23 09:56:12;;;;;;;4.63;1.93;;;14.00;99.90;;;;;;5015302;28;20621;-57
2024/03/23 09:58:38;;;;;;;4.60;1.87;;;14.10;99.90;;;;;;5015591;28;20681;-56
2024/03/23 10:01:05;;;;;;;4.80;1.77;;;14.20;99.90;;;;;;5015500;28;20241;-57
2024/03/23 10:03:30;;;;;;;4.13;2.00;;;14.50;99.90;;;;;;5041118;23;20238;-59
2024/03/23 10:06:05;;;;;;;6.30;2.27;;;15.00;99.90;;;;;;5031594;28;20205;-59
2024/03/23 10:08:31;;;;;;;4.60;2.10;;;15.30;99.90;;;;;;5023655;28;20294;-59
2024/03/23 10:10:58;;;;;;;4.07;2.20;;;15.50;99.90;;;;;;5024100;28;20655;-59
2024/03/23 10:13:24;;;;;;;5.83;2.50;;;15.50;99.90;;;;;;5027093;28;20257;-59
2024/03/23 10:15:57;;;;;;;4.50;2.30;;;15.30;99.90;;;;;;5016364;28;20214;-62
2024/03/23 10:18:24;;;;;;;4.40;2.23;;;15.00;99.90;;;;;;5016095;28;20293;-62
2024/03/23 10:20:53;;;;;;;5.10;2.30;;;14.80;99.90;;;;;;5023518;28;20207;-61
2024/03/23 10:23:21;;;;;;;4.00;2.00;;;14.40;99.90;;;;;;5015730;28;20310;-62
2024/03/23 10:25:46;;;;;;;4.90;2.03;;;14.20;99.90;;;;;;5023561;28;20214;-62
2024/03/23 10:28:13;;;;;;;5.03;2.20;;;14.50;99.90;;;;;;5026043;28;20202;-61
2024/03/23 10:30:39;;;;;;;4.50;1.80;;;14.60;99.90;;;;;;5026613;28;20751;-62
2024/03/23 10:33:09;;;;;;;4.77;2.30;;;14.70;99.90;;;;;;5024765;28;20219;-64
2024/03/23 10:35:36;;;;;;;5.47;2.30;;;14.60;99.90;;;;;;5022953;28;20211;-62
2024/03/23 10:38:05;;;;;;;6.83;2.30;;;14.50;99.90;;;;;;5024397;28;20203;-61
2024/03/23 10:40:34;;;;;;;6.77;2.60;;;14.40;99.90;;;;;;5026290;28;20226;-62
2024/03/23 10:43:01;;;;;;;5.20;2.20;;;14.30;99.90;;;;;;5025075;28;20226;-63
2024/03/23 10:45:27;;;;;;;4.13;2.40;;;14.10;99.90;;;;;;5022712;28;20209;-63
2024/03/23 10:47:54;;;;;;;3.20;2.13;;;13.90;99.90;;;;;;5022914;28;20281;-61
2024/03/23 10:50:20;;;;;;;5.33;2.57;;;13.80;99.90;;;;;;5025608;28;20414;-62
2024/03/23 10:52:48;;;;;;;6.03;2.50;;;13.70;99.90;;;;;;5026031;28;20619;-63
2024/03/23 10:55:16;;;;;;;5.57;2.30;;;13.40;99.90;;;;;;5023375;28;20298;-62
2024/03/23 10:57:51;;;;;;;5.97;2.20;;;13.40;99.90;;;;;;5022723;28;20231;-63
2024/03/23 11:00:17;;;;;;;5.90;2.17;;;13.20;99.90;;;;;;5025775;28;20601;-64
2024/03/23 11:02:44;;;;;;;8.07;2.40;;;13.00;99.90;;;;;;5025880;28;20236;-61
2024/03/23 11:05:29;;;;;;;8.43;2.83;;;12.90;99.90;;;;;;5022405;28;20642;-61
2024/03/23 11:07:56;;;;;;;9.67;2.90;;;12.60;99.90;;;;;;5022936;28;20210;-61
2024/03/23 11:10:26;;;;;;;11.10;3.27;;;12.20;99.90;;;;;;5025838;28;20202;-61
2024/03/23 11:12:54;;;;;;;7.47;2.83;;;11.80;99.90;;;;;;5025725;28;20561;-60
2024/03/23 11:15:20;;;;;;;8.10;3.57;;;11.40;99.90;;;;;;5014338;28;20673;-61
2024/03/23 11:18:05;;;;;;;8.23;2.60;;;11.00;99.90;;;;;;5021930;28;20257;-61
2024/03/23 11:20:32;;;;;;;8.53;2.93;;;10.50;99.90;;;;;;5016031;28;20227;-61
2024/03/23 11:23:00;;;;;;;7.23;2.93;;;10.30;99.90;;;;;;5022704;28;20654;-61
2024/03/23 11:25:27;;;;;;;6.73;3.20;;;10.20;99.90;;;;;;5025434;28;20202;-61
2024/03/23 11:27:56;;;;;;;8.67;3.40;;;10.30;99.90;;;;;;5025677;28;20206;-60
2024/03/23 11:30:23;;;;;;;5.07;3.10;;;10.40;99.90;;;;;;5014332;28;20195;-60
2024/03/23 11:32:51;;;;;;;9.53;3.67;;;10.70;99.90;;;;;;5022322;28;20261;-62
2024/03/23 11:35:31;;;;;;;5.67;3.00;;;11.20;99.90;;;;;;5024918;28;20206;-61
2024/03/23 11:38:11;;;;;;;4.87;3.30;;;11.80;99.90;;;;;;5024817;28;20198;-61
2024/03/23 11:40:38;;;;;;;8.00;3.03;;;12.40;99.90;;;;;;5021633;28;20655;-63
2024/03/23 11:43:07;;;;;;;6.03;2.63;;;12.70;99.90;;;;;;5022898;28;20233;-63
2024/03/23 11:45:37;;;;;;;6.50;2.37;;;13.10;99.90;;;;;;5024844;28;20738;-64
2024/03/23 11:48:08;;;;;;;7.07;2.30;;;13.40;99.90;;;;;;5024231;28;20664;-63
2024/03/23 11:50:36;;;;;;;3.47;2.00;;;13.90;99.90;;;;;;5021735;28;20226;-63
2024/03/23 11:53:10;;;;;;;5.37;3.70;;;14.30;99.90;;;;;;5022377;28;20313;-64
2024/03/23 11:55:41;;;;;;;4.60;2.37;;;14.40;99.90;;;;;;5024494;28;20210;-64
2024/03/23 11:58:09;;;;;;;4.10;2.20;;;14.60;99.90;;;;;;5023543;28;20248;-64
2024/03/23 12:00:35;;;;;;;4.40;1.80;;;14.70;99.90;;;;;;5021600;28;20242;-62
2024/03/23 12:03:02;;;;;;;9.13;4.17;;;14.70;99.90;;;;;;5022643;28;20635;-62
2024/03/23 12:05:29;;;;;;;5.33;2.90;;;14.60;99.90;;;;;;5024877;28;20670;-62
2024/03/23 12:07:55;;;;;;;4.83;2.20;;;14.40;99.90;;;;;;5024804;28;20228;-60
2024/03/23 12:10:21;;;;;;;6.20;2.90;;;14.10;99.90;;;;;;5021497;28;20628;-64
2024/03/23 12:13:00;;;;;;;5.53;3.23;;;13.90;99.90;;;;;;5021295;28;20752;-63
2024/03/23 12:15:29;;;;;;;5.70;3.47;;;13.70;99.90;;;;;;5013771;28;20206;-61
2024/03/23 12:18:07;;;;;;;7.03;2.87;;;13.50;99.90;;;;;;5021108;28;20266;-62
2024/03/23 12:20:33;;;;;;;5.10;2.20;;;13.40;99.90;;;;;;5015319;28;20324;-62
2024/03/23 12:23:06;;;;;;;4.60;1.80;;;13.30;99.90;;;;;;5021442;28;20227;-63
2024/03/23 12:25:32;;;;;;;14.37;8.23;;;13.10;99.90;;;;;;5023954;28;20691;-62
2024/03/23 12:28:00;;;;;;;4.03;2.50;;;13.10;99.90;;;;;;5023688;28;20206;-62
2024/03/23 12:30:27;;;;;;;5.37;2.10;;;13.10;99.90;;;;;;5020169;28;20206;-64
2024/03/23 12:32:53;;;;;;;5.87;2.77;;;12.90;99.90;;;;;;5020847;28;20258;-64
2024/03/23 12:35:19;;;;;;;6.03;2.20;;;12.70;99.90;;;;;;5024099;28;20214;-62
2024/03/23 12:37:46;;;;;;;6.83;2.10;;;12.70;99.90;;;;;;5024486;28;20202;-61
2024/03/23 12:40:11;;;;;;;6.83;2.70;;;12.70;99.90;;;;;;5022132;28;20700;-61
2024/03/23 12:42:38;;;;;;;6.37;1.87;;;12.80;99.90;;;;;;5020973;28;20225;-62
2024/03/23 12:45:05;;;;;;;8.50;3.30;;;13.00;99.90;;;;;;5021929;28;20207;-62